sensor_id;sensor_type;location;lat;lon;timestamp;temperature;humidity
54178;DHT22;40085;53.004;6.770;2023-03-04T09:17:31;6.60;99.90
54178;DHT22;40085;53.004;6.770;2023-03-04T09:19:57;6.50;99.90
54178;DHT22;40085;53.004;6.770;2023-03-04T09:22:22;6.60;99.90
54178;DHT22;40085;53.004;6.770;2023-03-04T09:24:48;6.60;99.90
54178;DHT22;40085;53.004;6.770;2023-03-04T09:27:13;7.20;99.90
54178;DHT22;40085;53.004;6.770;2023-03-04T09:29:39;6.70;99.90
54178;DHT22;40085;53.004;6.770;2023-03-04T09:32:05;6.80;99.90
54178;DHT22;40085;53.004;6.770;2023-03-04T09:34:31;6.80;99.90
54178;DHT22;40085;53.004;6.770;2023-03-04T09:36:56;6.90;99.90
54178;DHT22;40085;53.004;6.770;2023-03-04T09:39:22;6.90;99.90
54178;DHT22;40085;53.004;6.770;2023-03-04T09:41:49;7.00;99.90
54178;DHT22;40085;53.004;6.770;2023-03-04T09:44:25;7.00;99.90
54178;DHT22;40085;53.004;6.770;2023-03-04T09:46:51;7.10;99.90
54178;DHT22;40085;53.004;6.770;2023-03-04T09:49:20;7.20;99.90
54178;DHT22;40085;53.004;6.770;2023-03-04T09:51:56;7.30;99.90
54178;DHT22;40085;53.004;6.770;2023-03-04T09:56:50;7.70;99.90
54178;DHT22;40085;53.004;6.770;2023-03-04T09:59:37;7.20;99.90
54178;DHT22;40085;53.004;6.770;2023-03-04T10:02:46;7.10;99.90
54178;DHT22;40085;53.004;6.770;2023-03-04T10:05:20;7.00;99.90
54178;DHT22;40085;53.004;6.770;2023-03-04T10:07:53;7.00;99.90
54178;DHT22;40085;53.004;6.770;2023-03-04T10:10:34;7.10;99.90
54178;DHT22;40085;53.004;6.770;2023-03-04T10:13:01;7.20;99.90
54178;DHT22;40085;53.004;6.770;2023-03-04T10:15:38;7.20;99.90
54178;DHT22;40085;53.004;6.770;2023-03-04T10:21:05;7.30;99.90
54178;DHT22;40085;53.004;6.770;2023-03-04T10:23:33;7.30;99.90
54178;DHT22;40085;53.004;6.770;2023-03-04T10:26:04;7.40;99.90
54178;DHT22;40085;53.004;6.770;2023-03-04T10:28:35;7.50;99.90
54178;DHT22;40085;53.004;6.770;2023-03-04T10:31:46;7.80;99.90
54178;DHT22;40085;53.004;6.770;2023-03-04T10:33:48;7.70;99.90
54178;DHT22;40085;53.004;6.770;2023-03-04T10:38:59;7.60;99.90
54178;DHT22;40085;53.004;6.770;2023-03-04T10:41:27;8.50;99.90
54178;DHT22;40085;53.004;6.770;2023-03-04T10:43:59;7.30;99.90
54178;DHT22;40085;53.004;6.770;2023-03-04T10:46:25;7.50;99.90
54178;DHT22;40085;53.004;6.770;2023-03-04T10:48:53;7.10;99.90
54178;DHT22;40085;53.004;6.770;2023-03-04T10:51:22;7.20;99.90
54178;DHT22;40085;53.004;6.770;2023-03-04T10:53:51;7.30;99.90
54178;DHT22;40085;53.004;6.770;2023-03-04T10:56:40;7.40;99.90
54178;DHT22;40085;53.004;6.770;2023-03-04T11:01:50;7.70;99.90
54178;DHT22;40085;53.004;6.770;2023-03-04T11:04:19;7.60;99.90
54178;DHT22;40085;53.004;6.770;2023-03-04T11:06:47;7.70;99.90
54178;DHT22;40085;53.004;6.770;2023-03-04T11:09:28;7.60;99.90
54178;DHT22;40085;53.004;6.770;2023-03-04T11:11:55;7.60;26.60
54178;DHT22;40085;53.004;6.770;2023-03-04T11:17:01;7.50;8.40
54178;DHT22;40085;53.004;6.770;2023-03-04T11:19:41;7.50;19.70
54178;DHT22;40085;53.004;6.770;2023-03-04T11:22:09;7.50;27.00
54178;DHT22;40085;53.004;6.770;2023-03-04T11:24:37;7.50;1.00
54178;DHT22;40085;53.004;6.770;2023-03-04T11:27:18;7.50;1.00
54178;DHT22;40085;53.004;6.770;2023-03-04T11:29:51;7.50;1.00
54178;DHT22;40085;53.004;6.770;2023-03-04T11:32:25;7.50;1.00
54178;DHT22;40085;53.004;6.770;2023-03-04T11:35:04;8.20;3.80
54178;DHT22;40085;53.004;6.770;2023-03-04T11:40:43;7.60;1.00
54178;DHT22;40085;53.004;6.770;2023-03-04T11:43:16;8.10;1.00
54178;DHT22;40085;53.004;6.770;2023-03-04T11:48:45;7.40;1.00
54178;DHT22;40085;53.004;6.770;2023-03-04T11:56:44;7.60;1.00
54178;DHT22;40085;53.004;6.770;2023-03-04T12:10:35;8.10;1.00
54178;DHT22;40085;53.004;6.770;2023-03-04T12:16:31;8.20;1.00
54178;DHT22;40085;53.004;6.770;2023-03-04T12:19:06;8.10;1.00
54178;DHT22;40085;53.004;6.770;2023-03-04T12:32:35;9.00;60.20
54178;DHT22;40085;53.004;6.770;2023-03-04T12:43:36;8.70;99.90
54178;DHT22;40085;53.004;6.770;2023-03-04T12:46:36;8.70;99.90
54178;DHT22;40085;53.004;6.770;2023-03-04T12:52:05;8.90;99.90
54178;DHT22;40085;53.004;6.770;2023-03-04T12:54:40;8.80;99.90
54178;DHT22;40085;53.004;6.770;2023-03-04T12:59:56;8.40;99.90
54178;DHT22;40085;53.004;6.770;2023-03-04T13:05:35;7.90;99.90
54178;DHT22;40085;53.004;6.770;2023-03-04T13:08:06;7.90;99.90
54178;DHT22;40085;53.004;6.770;2023-03-04T13:10:35;7.80;99.90
54178;DHT22;40085;53.004;6.770;2023-03-04T13:13:01;7.90;99.90
54178;DHT22;40085;53.004;6.770;2023-03-04T13:15:36;7.90;99.90
54178;DHT22;40085;53.004;6.770;2023-03-04T13:18:31;8.00;99.90
54178;DHT22;40085;53.004;6.770;2023-03-04T13:23:36;8.40;1.00
54178;DHT22;40085;53.004;6.770;2023-03-04T13:28:29;8.80;99.90
54178;DHT22;40085;53.004;6.770;2023-03-04T13:41:23;7.50;99.90
54178;DHT22;40085;53.004;6.770;2023-03-04T13:43:54;7.40;1.00
54178;DHT22;40085;53.004;6.770;2023-03-04T13:56:41;7.60;99.90
54178;DHT22;40085;53.004;6.770;2023-03-04T14:01:35;8.00;99.90
54178;DHT22;40085;53.004;6.770;2023-03-04T14:04:17;8.00;99.90
54178;DHT22;40085;53.004;6.770;2023-03-04T14:06:50;8.00;99.90
54178;DHT22;40085;53.004;6.770;2023-03-04T14:09:23;8.10;99.90
54178;DHT22;40085;53.004;6.770;2023-03-04T14:11:50;8.00;99.90
54178;DHT22;40085;53.004;6.770;2023-03-04T14:14:22;8.10;99.90
54178;DHT22;40085;53.004;6.770;2023-03-04T14:16:51;8.30;99.90
54178;DHT22;40085;53.004;6.770;2023-03-04T14:19:25;8.60;99.90
54178;DHT22;40085;53.004;6.770;2023-03-04T14:21:51;8.60;99.90
54178;DHT22;40085;53.004;6.770;2023-03-04T14:24:19;8.60;99.90
54178;DHT22;40085;53.004;6.770;2023-03-04T14:26:46;8.40;99.90
54178;DHT22;40085;53.004;6.770;2023-03-04T14:29:24;8.20;99.90
54178;DHT22;40085;53.004;6.770;2023-03-04T14:31:52;8.00;99.90
54178;DHT22;40085;53.004;6.770;2023-03-04T14:34:29;7.90;99.90
54178;DHT22;40085;53.004;6.770;2023-03-04T14:36:57;7.70;99.90
54178;DHT22;40085;53.004;6.770;2023-03-04T14:39:25;7.70;99.90
54178;DHT22;40085;53.004;6.770;2023-03-04T14:41:52;7.70;99.90
54178;DHT22;40085;53.004;6.770;2023-03-04T14:44:34;7.50;99.90
54178;DHT22;40085;53.004;6.770;2023-03-04T14:47:25;7.40;1.00
54178;DHT22;40085;53.004;6.770;2023-03-04T14:49:54;7.20;1.00
54178;DHT22;40085;53.004;6.770;2023-03-04T14:52:40;7.10;19.70
54178;DHT22;40085;53.004;6.770;2023-03-04T14:55:26;7.20;16.10
54178;DHT22;40085;53.004;6.770;2023-03-04T14:58:07;7.40;22.70
54178;DHT22;40085;53.004;6.770;2023-03-04T15:00:35;6.50;32.60
54178;DHT22;40085;53.004;6.770;2023-03-04T15:03:03;6.30;22.30
54178;DHT22;40085;53.004;6.770;2023-03-04T15:05:35;6.40;22.00
54178;DHT22;40085;53.004;6.770;2023-03-04T15:08:16;6.40;23.00
54178;DHT22;40085;53.004;6.770;2023-03-04T15:10:42;6.50;13.40
54178;DHT22;40085;53.004;6.770;2023-03-04T15:13:39;6.50;1.00
54178;DHT22;40085;53.004;6.770;2023-03-04T15:16:06;7.00;1.00
54178;DHT22;40085;53.004;6.770;2023-03-04T15:18:32;7.00;1.00
54178;DHT22;40085;53.004;6.770;2023-03-04T15:21:24;6.80;1.00
54178;DHT22;40085;53.004;6.770;2023-03-04T15:23:51;6.60;1.00
54178;DHT22;40085;53.004;6.770;2023-03-04T15:26:16;6.40;2.30
54178;DHT22;40085;53.004;6.770;2023-03-04T15:28:42;6.20;14.20
54178;DHT22;40085;53.004;6.770;2023-03-04T15:31:17;6.30;32.10
54178;DHT22;40085;53.004;6.770;2023-03-04T15:33:43;6.30;37.70
54178;DHT22;40085;53.004;6.770;2023-03-04T15:36:14;6.20;42.10
54178;DHT22;40085;53.004;6.770;2023-03-04T15:38:41;6.20;32.60
54178;DHT22;40085;53.004;6.770;2023-03-04T15:41:10;6.20;27.80
54178;DHT22;40085;53.004;6.770;2023-03-04T15:43:36;6.50;29.40
54178;DHT22;40085;53.004;6.770;2023-03-04T15:46:02;6.30;10.70
54178;DHT22;40085;53.004;6.770;2023-03-04T15:48:28;6.40;1.00
54178;DHT22;40085;53.004;6.770;2023-03-04T15:50:58;6.50;1.00
54178;DHT22;40085;53.004;6.770;2023-03-04T15:53:31;6.50;1.00
54178;DHT22;40085;53.004;6.770;2023-03-04T15:55:58;6.80;1.00
54178;DHT22;40085;53.004;6.770;2023-03-04T15:58:24;6.70;1.00
54178;DHT22;40085;53.004;6.770;2023-03-04T16:00:50;6.50;1.00
54178;DHT22;40085;53.004;6.770;2023-03-04T16:03:18;6.10;1.00
54178;DHT22;40085;53.004;6.770;2023-03-04T16:05:47;6.30;1.00
54178;DHT22;40085;53.004;6.770;2023-03-04T16:08:15;6.20;1.00
54178;DHT22;40085;53.004;6.770;2023-03-04T16:10:42;6.20;5.80
54178;DHT22;40085;53.004;6.770;2023-03-04T16:13:17;6.30;14.00
54178;DHT22;40085;53.004;6.770;2023-03-04T16:15:43;6.40;8.00
54178;DHT22;40085;53.004;6.770;2023-03-04T16:18:10;6.20;1.00
54178;DHT22;40085;53.004;6.770;2023-03-04T16:20:37;6.20;1.00
54178;DHT22;40085;53.004;6.770;2023-03-04T16:23:03;6.10;1.00
54178;DHT22;40085;53.004;6.770;2023-03-04T16:25:29;5.90;1.00
54178;DHT22;40085;53.004;6.770;2023-03-04T16:27:55;5.70;1.00
54178;DHT22;40085;53.004;6.770;2023-03-04T16:30:25;5.70;12.00
54178;DHT22;40085;53.004;6.770;2023-03-04T16:32:51;5.60;16.30
54178;DHT22;40085;53.004;6.770;2023-03-04T16:35:19;5.60;14.60
54178;DHT22;40085;53.004;6.770;2023-03-04T16:37:45;5.60;9.40
54178;DHT22;40085;53.004;6.770;2023-03-04T16:40:18;5.50;11.00
54178;DHT22;40085;53.004;6.770;2023-03-04T16:42:44;5.50;1.00
54178;DHT22;40085;53.004;6.770;2023-03-04T16:45:16;5.30;1.00
54178;DHT22;40085;53.004;6.770;2023-03-04T16:47:41;5.60;2.40
54178;DHT22;40085;53.004;6.770;2023-03-04T16:50:13;5.50;1.00
54178;DHT22;40085;53.004;6.770;2023-03-04T16:52:39;5.40;1.00
54178;DHT22;40085;53.004;6.770;2023-03-04T16:55:04;5.50;9.60
54178;DHT22;40085;53.004;6.770;2023-03-04T16:57:30;5.50;6.50
54178;DHT22;40085;53.004;6.770;2023-03-04T16:59:56;5.60;3.30
54178;DHT22;40085;53.004;6.770;2023-03-04T17:02:23;5.40;10.80
54178;DHT22;40085;53.004;6.770;2023-03-04T17:04:52;5.30;6.20
54178;DHT22;40085;53.004;6.770;2023-03-04T17:07:17;5.30;9.80
54178;DHT22;40085;53.004;6.770;2023-03-04T17:09:43;5.10;16.00
54178;DHT22;40085;53.004;6.770;2023-03-04T17:12:11;5.20;15.80
54178;DHT22;40085;53.004;6.770;2023-03-04T17:14:37;5.20;25.50
54178;DHT22;40085;53.004;6.770;2023-03-04T17:17:04;5.20;22.80
54178;DHT22;40085;53.004;6.770;2023-03-04T17:19:30;5.20;32.70
54178;DHT22;40085;53.004;6.770;2023-03-04T17:21:59;5.10;32.10
54178;DHT22;40085;53.004;6.770;2023-03-04T17:24:26;5.20;36.20
54178;DHT22;40085;53.004;6.770;2023-03-04T17:26:52;5.10;26.00
54178;DHT22;40085;53.004;6.770;2023-03-04T17:29:18;5.00;28.50
54178;DHT22;40085;53.004;6.770;2023-03-04T17:31:44;5.10;29.10
54178;DHT22;40085;53.004;6.770;2023-03-04T17:34:10;5.90;34.10
54178;DHT22;40085;53.004;6.770;2023-03-04T17:36:35;5.00;29.00
54178;DHT22;40085;53.004;6.770;2023-03-04T17:39:01;4.90;28.20
54178;DHT22;40085;53.004;6.770;2023-03-04T17:41:27;5.10;29.00
54178;DHT22;40085;53.004;6.770;2023-03-04T17:43:53;5.00;26.10
54178;DHT22;40085;53.004;6.770;2023-03-04T17:46:21;4.90;26.30
54178;DHT22;40085;53.004;6.770;2023-03-04T17:48:48;4.90;17.30
54178;DHT22;40085;53.004;6.770;2023-03-04T17:51:14;4.90;21.60
54178;DHT22;40085;53.004;6.770;2023-03-04T17:53:40;4.90;33.00
54178;DHT22;40085;53.004;6.770;2023-03-04T17:56:08;4.90;29.30
54178;DHT22;40085;53.004;6.770;2023-03-04T17:58:35;4.90;33.80
54178;DHT22;40085;53.004;6.770;2023-03-04T18:01:10;4.80;33.90
54178;DHT22;40085;53.004;6.770;2023-03-04T18:03:39;4.80;37.70
54178;DHT22;40085;53.004;6.770;2023-03-04T18:06:05;4.70;41.00
54178;DHT22;40085;53.004;6.770;2023-03-04T18:08:30;4.70;47.40
54178;DHT22;40085;53.004;6.770;2023-03-04T18:10:56;4.70;48.70
54178;DHT22;40085;53.004;6.770;2023-03-04T18:13:21;4.70;52.40
54178;DHT22;40085;53.004;6.770;2023-03-04T18:15:47;4.70;51.80
54178;DHT22;40085;53.004;6.770;2023-03-04T18:18:13;4.70;52.30
54178;DHT22;40085;53.004;6.770;2023-03-04T18:20:38;4.70;50.70
54178;DHT22;40085;53.004;6.770;2023-03-04T18:23:04;4.70;51.50
54178;DHT22;40085;53.004;6.770;2023-03-04T18:25:29;4.70;56.10
54178;DHT22;40085;53.004;6.770;2023-03-04T18:27:55;4.70;56.30
54178;DHT22;40085;53.004;6.770;2023-03-04T18:30:21;4.70;55.80
54178;DHT22;40085;53.004;6.770;2023-03-04T18:32:52;4.70;57.40
54178;DHT22;40085;53.004;6.770;2023-03-04T18:35:19;4.70;57.80
54178;DHT22;40085;53.004;6.770;2023-03-04T18:37:45;4.70;64.70
54178;DHT22;40085;53.004;6.770;2023-03-04T18:40:11;4.70;62.20
54178;DHT22;40085;53.004;6.770;2023-03-04T18:42:37;4.60;64.20
54178;DHT22;40085;53.004;6.770;2023-03-04T18:45:04;4.60;65.20
54178;DHT22;40085;53.004;6.770;2023-03-04T18:47:31;4.70;69.10
54178;DHT22;40085;53.004;6.770;2023-03-04T18:49:57;4.70;73.90
54178;DHT22;40085;53.004;6.770;2023-03-04T18:52:23;4.70;78.10
54178;DHT22;40085;53.004;6.770;2023-03-04T18:54:48;4.70;83.40
54178;DHT22;40085;53.004;6.770;2023-03-04T18:57:14;4.60;81.30
54178;DHT22;40085;53.004;6.770;2023-03-04T18:59:58;4.60;80.90
54178;DHT22;40085;53.004;6.770;2023-03-04T19:05:08;4.40;87.20
54178;DHT22;40085;53.004;6.770;2023-03-04T19:07:35;4.90;95.20
54178;DHT22;40085;53.004;6.770;2023-03-04T19:10:01;4.40;92.80
54178;DHT22;40085;53.004;6.770;2023-03-04T19:12:26;4.40;91.80
54178;DHT22;40085;53.004;6.770;2023-03-04T19:14:52;4.40;91.20
54178;DHT22;40085;53.004;6.770;2023-03-04T19:17:17;4.40;87.60
54178;DHT22;40085;53.004;6.770;2023-03-04T19:19:43;4.30;87.80
54178;DHT22;40085;53.004;6.770;2023-03-04T19:22:09;4.30;90.40
54178;DHT22;40085;53.004;6.770;2023-03-04T19:24:35;4.30;86.40
54178;DHT22;40085;53.004;6.770;2023-03-04T19:27:00;4.30;84.90
54178;DHT22;40085;53.004;6.770;2023-03-04T19:29:27;4.30;85.70
54178;DHT22;40085;53.004;6.770;2023-03-04T19:31:54;4.30;85.80
54178;DHT22;40085;53.004;6.770;2023-03-04T19:34:19;4.30;84.10
54178;DHT22;40085;53.004;6.770;2023-03-04T19:36:45;4.30;86.40
54178;DHT22;40085;53.004;6.770;2023-03-04T19:39:10;4.30;86.30
54178;DHT22;40085;53.004;6.770;2023-03-04T19:41:38;4.30;84.20
54178;DHT22;40085;53.004;6.770;2023-03-04T19:44:05;4.30;88.20
54178;DHT22;40085;53.004;6.770;2023-03-04T19:46:31;4.30;87.70
54178;DHT22;40085;53.004;6.770;2023-03-04T19:48:56;4.30;90.50
54178;DHT22;40085;53.004;6.770;2023-03-04T19:51:23;4.30;91.20
54178;DHT22;40085;53.004;6.770;2023-03-04T19:53:53;4.30;92.60
54178;DHT22;40085;53.004;6.770;2023-03-04T19:56:20;4.30;92.70
54178;DHT22;40085;53.004;6.770;2023-03-04T19:58:46;4.20;93.10
54178;DHT22;40085;53.004;6.770;2023-03-04T20:01:21;4.30;94.20
54178;DHT22;40085;53.004;6.770;2023-03-04T20:03:50;4.30;96.50
54178;DHT22;40085;53.004;6.770;2023-03-04T20:06:15;4.30;96.30
54178;DHT22;40085;53.004;6.770;2023-03-04T20:08:41;4.20;97.70
54178;DHT22;40085;53.004;6.770;2023-03-04T20:11:10;4.20;96.90
54178;DHT22;40085;53.004;6.770;2023-03-04T20:13:36;4.20;98.30
54178;DHT22;40085;53.004;6.770;2023-03-04T20:16:06;4.20;97.90
54178;DHT22;40085;53.004;6.770;2023-03-04T20:18:32;5.00;97.80
54178;DHT22;40085;53.004;6.770;2023-03-04T20:20:57;4.20;97.00
54178;DHT22;40085;53.004;6.770;2023-03-04T20:23:23;4.20;98.00
54178;DHT22;40085;53.004;6.770;2023-03-04T20:25:48;4.20;97.50
54178;DHT22;40085;53.004;6.770;2023-03-04T20:28:14;4.20;97.30
54178;DHT22;40085;53.004;6.770;2023-03-04T20:30:40;4.20;96.70
54178;DHT22;40085;53.004;6.770;2023-03-04T20:33:08;4.20;96.80
54178;DHT22;40085;53.004;6.770;2023-03-04T20:35:34;4.10;96.00
54178;DHT22;40085;53.004;6.770;2023-03-04T20:37:59;4.20;96.40
54178;DHT22;40085;53.004;6.770;2023-03-04T20:40:25;4.10;96.60
54178;DHT22;40085;53.004;6.770;2023-03-04T20:42:50;4.10;96.80
54178;DHT22;40085;53.004;6.770;2023-03-04T20:45:16;4.90;97.90
54178;DHT22;40085;53.004;6.770;2023-03-04T20:47:42;4.10;96.70
54178;DHT22;40085;53.004;6.770;2023-03-04T20:50:08;4.00;97.20
54178;DHT22;40085;53.004;6.770;2023-03-04T20:52:34;4.00;96.20
54178;DHT22;40085;53.004;6.770;2023-03-04T20:54:59;4.00;97.10
54178;DHT22;40085;53.004;6.770;2023-03-04T20:57:25;4.00;97.40
54178;DHT22;40085;53.004;6.770;2023-03-04T20:59:51;4.00;99.20
54178;DHT22;40085;53.004;6.770;2023-03-04T21:02:16;4.30;99.90
54178;DHT22;40085;53.004;6.770;2023-03-04T21:04:44;4.00;99.90
54178;DHT22;40085;53.004;6.770;2023-03-04T21:07:10;4.00;99.90
54178;DHT22;40085;53.004;6.770;2023-03-04T21:09:36;3.90;99.90
54178;DHT22;40085;53.004;6.770;2023-03-04T21:12:01;4.00;99.90
54178;DHT22;40085;53.004;6.770;2023-03-04T21:14:29;4.00;99.90
54178;DHT22;40085;53.004;6.770;2023-03-04T21:16:57;4.00;99.90
54178;DHT22;40085;53.004;6.770;2023-03-04T21:19:31;3.90;99.90
54178;DHT22;40085;53.004;6.770;2023-03-04T21:21:59;3.90;99.90
54178;DHT22;40085;53.004;6.770;2023-03-04T21:24:27;3.80;99.90
54178;DHT22;40085;53.004;6.770;2023-03-04T21:26:54;3.70;99.90
54178;DHT22;40085;53.004;6.770;2023-03-04T21:29:22;3.70;99.90
54178;DHT22;40085;53.004;6.770;2023-03-04T21:31:51;3.60;99.90
54178;DHT22;40085;53.004;6.770;2023-03-04T21:34:28;3.60;99.90
54178;DHT22;40085;53.004;6.770;2023-03-04T21:36:55;3.50;99.90
54178;DHT22;40085;53.004;6.770;2023-03-04T21:39:22;3.50;99.90
54178;DHT22;40085;53.004;6.770;2023-03-04T21:41:49;3.50;99.90
54178;DHT22;40085;53.004;6.770;2023-03-04T21:44:15;3.40;99.90
54178;DHT22;40085;53.004;6.770;2023-03-04T21:46:40;3.50;99.90
54178;DHT22;40085;53.004;6.770;2023-03-04T21:49:07;3.50;99.90
54178;DHT22;40085;53.004;6.770;2023-03-04T21:51:39;3.50;99.90
54178;DHT22;40085;53.004;6.770;2023-03-04T21:54:05;3.50;99.90
54178;DHT22;40085;53.004;6.770;2023-03-04T21:56:32;3.50;99.90
54178;DHT22;40085;53.004;6.770;2023-03-04T21:58:59;3.50;99.90
54178;DHT22;40085;53.004;6.770;2023-03-04T22:01:25;3.50;99.90
54178;DHT22;40085;53.004;6.770;2023-03-04T22:03:50;3.50;99.90
54178;DHT22;40085;53.004;6.770;2023-03-04T22:06:18;3.50;99.90
54178;DHT22;40085;53.004;6.770;2023-03-04T22:08:50;3.50;99.90
54178;DHT22;40085;53.004;6.770;2023-03-04T22:11:16;3.50;99.90
54178;DHT22;40085;53.004;6.770;2023-03-04T22:13:42;3.50;99.90
54178;DHT22;40085;53.004;6.770;2023-03-04T22:16:08;3.50;99.90
54178;DHT22;40085;53.004;6.770;2023-03-04T22:18:34;3.50;99.90
54178;DHT22;40085;53.004;6.770;2023-03-04T22:21:12;3.50;99.90
54178;DHT22;40085;53.004;6.770;2023-03-04T22:23:39;3.50;99.90
54178;DHT22;40085;53.004;6.770;2023-03-04T22:26:13;3.50;99.90
54178;DHT22;40085;53.004;6.770;2023-03-04T22:28:40;3.50;99.90
54178;DHT22;40085;53.004;6.770;2023-03-04T22:31:27;3.40;99.90
54178;DHT22;40085;53.004;6.770;2023-03-04T22:34:09;3.40;99.90
54178;DHT22;40085;53.004;6.770;2023-03-04T22:36:38;3.50;99.90
54178;DHT22;40085;53.004;6.770;2023-03-04T22:39:05;3.40;99.90
54178;DHT22;40085;53.004;6.770;2023-03-04T22:41:31;3.40;99.90
54178;DHT22;40085;53.004;6.770;2023-03-04T22:43:57;4.20;99.90
54178;DHT22;40085;53.004;6.770;2023-03-04T22:46:28;3.40;99.90
54178;DHT22;40085;53.004;6.770;2023-03-04T22:48:56;3.50;99.90
54178;DHT22;40085;53.004;6.770;2023-03-04T22:51:22;3.40;99.90
54178;DHT22;40085;53.004;6.770;2023-03-04T22:53:48;3.40;99.90
54178;DHT22;40085;53.004;6.770;2023-03-04T22:56:14;3.50;99.90
54178;DHT22;40085;53.004;6.770;2023-03-04T22:58:41;3.40;99.90
54178;DHT22;40085;53.004;6.770;2023-03-04T23:01:08;3.40;99.90
54178;DHT22;40085;53.004;6.770;2023-03-04T23:03:34;3.40;99.90
54178;DHT22;40085;53.004;6.770;2023-03-04T23:06:03;3.40;99.90
54178;DHT22;40085;53.004;6.770;2023-03-04T23:08:31;3.40;99.90
54178;DHT22;40085;53.004;6.770;2023-03-04T23:10:57;3.40;99.90
54178;DHT22;40085;53.004;6.770;2023-03-04T23:13:23;3.40;99.90
54178;DHT22;40085;53.004;6.770;2023-03-04T23:15:48;3.40;99.90
54178;DHT22;40085;53.004;6.770;2023-03-04T23:18:14;3.40;99.90
54178;DHT22;40085;53.004;6.770;2023-03-04T23:20:40;4.20;99.90
54178;DHT22;40085;53.004;6.770;2023-03-04T23:23:07;3.40;99.90
54178;DHT22;40085;53.004;6.770;2023-03-04T23:25:34;3.40;99.90
54178;DHT22;40085;53.004;6.770;2023-03-04T23:28:00;3.40;99.90
54178;DHT22;40085;53.004;6.770;2023-03-04T23:30:26;3.40;99.90
54178;DHT22;40085;53.004;6.770;2023-03-04T23:32:51;3.40;99.90
54178;DHT22;40085;53.004;6.770;2023-03-04T23:35:17;3.40;99.90
54178;DHT22;40085;53.004;6.770;2023-03-04T23:37:43;3.40;99.90
54178;DHT22;40085;53.004;6.770;2023-03-04T23:40:09;3.40;99.90
54178;DHT22;40085;53.004;6.770;2023-03-04T23:42:36;3.40;99.90
54178;DHT22;40085;53.004;6.770;2023-03-04T23:45:02;3.50;99.90
54178;DHT22;40085;53.004;6.770;2023-03-04T23:47:28;3.50;99.90
54178;DHT22;40085;53.004;6.770;2023-03-04T23:49:53;3.50;99.90
54178;DHT22;40085;53.004;6.770;2023-03-04T23:52:19;3.50;99.90
54178;DHT22;40085;53.004;6.770;2023-03-04T23:54:45;3.60;99.90
54178;DHT22;40085;53.004;6.770;2023-03-04T23:57:10;3.50;99.90
54178;DHT22;40085;53.004;6.770;2023-03-04T23:59:37;3.50;99.90
